Slovenska Bistrica, Slovenia
Current Conditions -  °F | °C
As of 10:30 AM on Friday 24 Oct 2014 (Local Time) from LJMB Reporting Station
Broken Clouds Broken Clouds  
Wind Chill: 50°   Ceiling: 4700
Heat Index: 50°   Visibility: 6mi
Dew Point: 43°   Wind: 10mph
Humidity: 76%   Direction: 20°NNE
Pressure: 30"   Gusts: NA
Location:  46.39°N, 15.57°E
Report Text: LJMB 240830Z 02009KT 350V050 9999 BKN047 10/06 Q1016
Loading
Personal Weather Stations






























Interactive Weather Map
Tropical Storm Tracking
New forecast layout! Learn more

10-Day Weather Forecast

Advertisements
Track Severe Weather on mobile